createdAt,value
2018-05-07T00:01:40.860Z,101639.32
2018-05-07T00:04:08.501Z,101645.95
2018-05-07T00:06:36.167Z,101634.13
2018-05-07T00:09:03.752Z,101635.73
2018-05-07T00:11:31.497Z,101630.86
2018-05-07T00:13:58.988Z,101636.98
2018-05-07T00:16:26.632Z,101634.25
2018-05-07T00:18:54.225Z,101629.53
2018-05-07T00:21:21.853Z,101630.80
2018-05-07T00:23:49.581Z,101623.63
2018-05-07T00:26:17.214Z,101631.07
2018-05-07T00:28:45.329Z,101621.67
2018-05-07T00:31:13.033Z,101616.08
2018-05-07T00:33:40.616Z,101619.09
2018-05-07T00:36:08.330Z,101615.77
2018-05-07T00:38:35.971Z,101622.80
2018-05-07T00:41:03.609Z,101627.26
2018-05-07T00:43:31.222Z,101630.66
2018-05-07T00:45:58.993Z,101627.00
2018-05-07T00:48:26.600Z,101623.73
2018-05-07T00:50:54.297Z,101627.57
2018-05-07T00:53:21.916Z,101620.71
2018-05-07T00:55:49.560Z,101621.03
2018-05-07T00:58:17.214Z,101619.03
2018-05-07T01:00:44.892Z,101622.77
2018-05-07T01:03:12.493Z,101624.78
2018-05-07T01:05:40.096Z,101626.79
2018-05-07T01:08:07.720Z,101625.80
2018-05-07T01:10:35.358Z,101630.41
2018-05-07T01:13:02.981Z,101625.34
2018-05-07T01:15:30.581Z,101626.29
2018-05-07T01:17:58.232Z,101629.28
2018-05-07T01:20:25.828Z,101628.72
2018-05-07T01:22:53.465Z,101628.04
2018-05-07T01:25:21.136Z,101634.22
2018-05-07T01:27:48.776Z,101626.41
2018-05-07T01:30:16.379Z,101627.89
2018-05-07T01:32:44.078Z,101629.52
2018-05-07T01:35:11.675Z,101626.44
2018-05-07T01:37:39.347Z,101631.94
2018-05-07T01:40:06.959Z,101639.92
2018-05-07T01:42:34.617Z,101633.06
2018-05-07T01:45:02.221Z,101634.01
2018-05-07T01:47:29.892Z,101629.63
2018-05-07T01:49:57.540Z,101632.06
2018-05-07T01:52:25.165Z,101631.95
2018-05-07T01:54:52.803Z,101632.17
2018-05-07T01:57:20.417Z,101626.89
2018-05-07T01:59:48.069Z,101625.69
2018-05-07T02:02:15.693Z,101616.83
2018-05-07T02:04:43.365Z,101617.64
2018-05-07T02:07:10.976Z,101619.30
2018-05-07T02:09:38.602Z,101618.84
2018-05-07T02:12:06.192Z,101623.03
2018-05-07T02:14:33.832Z,101622.13
2018-05-07T02:17:01.527Z,101618.30
2018-05-07T02:19:29.164Z,101617.92
2018-05-07T02:21:56.758Z,101611.92
2018-05-07T02:24:24.357Z,101613.64
2018-05-07T02:26:52.068Z,101615.19
2018-05-07T02:29:19.705Z,101612.91
2018-05-07T02:31:47.390Z,101618.53
2018-05-07T02:34:14.992Z,101617.41
2018-05-07T02:36:42.651Z,101616.94
2018-05-07T02:39:10.350Z,101615.02
2018-05-07T02:41:38.045Z,101615.77
2018-05-07T02:44:05.651Z,101615.16
2018-05-07T02:46:33.287Z,101613.36
2018-05-07T02:49:01.025Z,101614.30
2018-05-07T02:51:28.790Z,101612.86
2018-05-07T02:53:56.421Z,101610.13
2018-05-07T02:56:24.090Z,101615.22
2018-05-07T02:58:51.761Z,101612.67
2018-05-07T03:01:19.449Z,101613.06
2018-05-07T03:03:47.045Z,101614.36
2018-05-07T03:06:14.667Z,101615.98
2018-05-07T03:08:42.304Z,101612.19
2018-05-07T03:11:09.932Z,101606.34
2018-05-07T03:13:37.610Z,101606.19
2018-05-07T03:16:05.204Z,101606.66
2018-05-07T03:18:32.841Z,101605.77
2018-05-07T03:21:00.465Z,101605.34
2018-05-07T03:23:28.161Z,101596.91
2018-05-07T03:25:55.753Z,101595.94
2018-05-07T03:28:23.397Z,101594.78
2018-05-07T03:30:51.029Z,101597.39
2018-05-07T03:33:18.666Z,101593.88
2018-05-07T03:35:46.301Z,101596.25
2018-05-07T03:38:13.986Z,101597.45
2018-05-07T03:40:41.610Z,101597.76
2018-05-07T03:43:09.321Z,101597.54
2018-05-07T03:45:36.959Z,101592.81
2018-05-07T03:48:04.606Z,101583.97
2018-05-07T03:50:32.197Z,101585.50
2018-05-07T03:52:59.798Z,101580.73
2018-05-07T03:55:27.422Z,101584.75
2018-05-07T03:57:55.028Z,101577.67
2018-05-07T04:00:22.666Z,101579.80
2018-05-07T04:02:50.309Z,101576.05
2018-05-07T04:05:17.956Z,101574.28
2018-05-07T04:07:47.301Z,101570.30
2018-05-07T04:10:14.929Z,101574.35
2018-05-07T04:12:42.541Z,101569.41
2018-05-07T04:15:10.177Z,101569.68
2018-05-07T04:17:49.387Z,101570.79
2018-05-07T04:20:28.512Z,101569.13
2018-05-07T04:23:07.722Z,101571.06
2018-05-07T04:25:35.354Z,101573.92
2018-05-07T04:28:02.945Z,101577.52
2018-05-07T04:30:30.598Z,101577.41
2018-05-07T04:32:58.212Z,101572.34
2018-05-07T04:35:25.837Z,101576.22
2018-05-07T04:37:53.432Z,101578.61
2018-05-07T04:40:21.094Z,101574.23
2018-05-07T04:42:48.723Z,101574.36
2018-05-07T04:45:16.357Z,101577.36
2018-05-07T04:47:43.971Z,101575.86
2018-05-07T04:50:11.610Z,101577.13
2018-05-07T04:52:39.204Z,101574.95
2018-05-07T04:55:06.836Z,101576.20
2018-05-07T04:57:34.471Z,101578.46
2018-05-07T05:00:02.061Z,101577.38
2018-05-07T05:02:29.714Z,101577.94
2018-05-07T05:04:57.311Z,101576.50
2018-05-07T05:07:24.956Z,101575.20
2018-05-07T05:09:52.557Z,101577.80
2018-05-07T05:12:20.205Z,101579.03
2018-05-07T05:14:47.841Z,101586.95
2018-05-07T05:17:15.470Z,101581.28
2018-05-07T05:19:43.082Z,101576.83
2018-05-07T05:22:10.725Z,101581.07
2018-05-07T05:24:38.313Z,101578.72
2018-05-07T05:27:05.946Z,101578.63
2018-05-07T05:29:33.559Z,101580.14
2018-05-07T05:32:01.200Z,101577.64
2018-05-07T05:34:28.799Z,101577.77
2018-05-07T05:36:56.429Z,101578.94
2018-05-07T05:39:24.042Z,101581.24
2018-05-07T05:41:51.738Z,101577.97
2018-05-07T05:44:19.341Z,101576.45
2018-05-07T05:46:47.008Z,101568.09
2018-05-07T05:49:14.606Z,101565.78
2018-05-07T05:51:42.306Z,101571.86
2018-05-07T05:54:09.929Z,101572.23
2018-05-07T05:56:37.598Z,101573.11
2018-05-07T05:59:05.264Z,101575.51
2018-05-07T06:01:32.869Z,101574.59
2018-05-07T06:04:00.584Z,101568.29
2018-05-07T06:06:28.166Z,101564.30
2018-05-07T06:08:55.957Z,101574.21
2018-05-07T06:11:23.533Z,101577.40
2018-05-07T06:13:51.172Z,101574.14
2018-05-07T06:16:18.780Z,101574.80
2018-05-07T06:18:46.428Z,101571.19
2018-05-07T06:21:14.076Z,101569.83
2018-05-07T06:23:41.727Z,101573.27
2018-05-07T06:26:09.355Z,101574.52
2018-05-07T06:28:37.024Z,101566.83
2018-05-07T06:31:04.657Z,101571.85
2018-05-07T06:33:32.315Z,101573.44
2018-05-07T06:35:59.912Z,101573.50
2018-05-07T06:38:27.553Z,101567.14
2018-05-07T06:40:55.155Z,101565.25
2018-05-07T06:43:22.804Z,101559.36
2018-05-07T06:45:50.509Z,101565.98
2018-05-07T06:48:18.196Z,101562.19
2018-05-07T06:50:45.876Z,101562.33
2018-05-07T06:53:13.483Z,101562.67
2018-05-07T06:55:41.246Z,101563.97
2018-05-07T06:58:08.841Z,101560.91
2018-05-07T07:00:36.471Z,101564.42
2018-05-07T07:03:04.073Z,101562.80
2018-05-07T07:05:31.720Z,101562.64
2018-05-07T07:07:59.332Z,101561.98
2018-05-07T07:10:26.969Z,101560.97
2018-05-07T07:12:54.584Z,101563.28
2018-05-07T07:15:22.217Z,101562.49
2018-05-07T07:17:49.829Z,101568.31
2018-05-07T07:20:17.492Z,101560.09
2018-05-07T07:22:45.106Z,101551.92
2018-05-07T07:25:12.824Z,101552.63
2018-05-07T07:27:40.428Z,101548.47
2018-05-07T07:30:08.120Z,101550.36
2018-05-07T07:32:35.766Z,101543.38
2018-05-07T07:35:03.445Z,101543.17
2018-05-07T07:37:31.122Z,101546.34
2018-05-07T07:39:58.721Z,101544.34
2018-05-07T07:42:26.357Z,101542.62
2018-05-07T07:44:53.968Z,101543.97
2018-05-07T07:47:21.798Z,101547.07
2018-05-07T07:49:49.358Z,101545.81
2018-05-07T07:52:16.995Z,101544.20
2018-05-07T07:54:44.630Z,101545.67
2018-05-07T07:57:12.292Z,101545.34
2018-05-07T07:59:40.553Z,101546.74
2018-05-07T08:02:08.416Z,101547.20
2018-05-07T08:04:36.160Z,101548.27
2018-05-07T08:07:04.308Z,101548.78
2018-05-07T08:09:32.078Z,101542.67
2018-05-07T08:11:59.726Z,101537.15
2018-05-07T08:14:27.432Z,101537.44
2018-05-07T08:16:55.949Z,101540.38
2018-05-07T08:19:23.701Z,101534.92
2018-05-07T08:21:51.344Z,101533.34
2018-05-07T08:24:18.987Z,101531.19
2018-05-07T08:26:46.600Z,101526.48
2018-05-07T08:29:14.220Z,101530.16
2018-05-07T08:31:41.845Z,101527.58
2018-05-07T08:34:09.553Z,101526.06
2018-05-07T08:36:37.207Z,101527.95
2018-05-07T08:39:05.602Z,101521.86
2018-05-07T08:41:33.205Z,101525.49
2018-05-07T08:44:00.905Z,101520.67
2018-05-07T08:46:28.518Z,101519.83
2018-05-07T08:48:56.136Z,101522.44
2018-05-07T08:51:23.742Z,101513.62
2018-05-07T08:53:51.372Z,101515.00
2018-05-07T08:56:18.985Z,101512.39
2018-05-07T08:58:46.678Z,101506.65
2018-05-07T09:01:14.281Z,101503.23
2018-05-07T09:03:41.932Z,101498.48
2018-05-07T09:06:09.522Z,101505.12
2018-05-07T09:08:37.245Z,101496.31
2018-05-07T09:11:04.850Z,101495.03
2018-05-07T09:13:32.504Z,101495.52
2018-05-07T09:16:00.156Z,101490.27
2018-05-07T09:18:27.765Z,101492.89
2018-05-07T09:20:55.413Z,101490.68
2018-05-07T09:23:23.023Z,101485.41
2018-05-07T09:25:50.652Z,101484.06
2018-05-07T09:28:18.305Z,101481.00
2018-05-07T09:30:46.081Z,101473.47
2018-05-07T09:33:13.678Z,101473.02
2018-05-07T09:35:41.314Z,101472.56
2018-05-07T09:38:08.926Z,101468.59
2018-05-07T09:40:36.565Z,101468.98
2018-05-07T09:43:04.273Z,101465.84
2018-05-07T09:45:31.886Z,101460.14
2018-05-07T09:47:59.832Z,101461.41
2018-05-07T09:50:27.455Z,101459.48
2018-05-07T09:52:55.085Z,101461.67
2018-05-07T09:55:22.686Z,101458.15
2018-05-07T09:58:02.952Z,101448.94
2018-05-07T10:00:36.152Z,101447.23
2018-05-07T10:03:03.785Z,101449.39
2018-05-07T10:05:31.361Z,101450.74
2018-05-07T10:07:59.112Z,101437.95
2018-05-07T10:10:26.740Z,101443.30
2018-05-07T10:12:54.429Z,101442.41
2018-05-07T10:15:22.058Z,101440.52
2018-05-07T10:17:49.689Z,101430.33
2018-05-07T10:20:17.473Z,101431.06
2018-05-07T10:22:45.121Z,101422.68
2018-05-07T10:25:12.724Z,101426.17
2018-05-07T10:27:40.364Z,101416.48
2018-05-07T10:30:07.964Z,101423.29
2018-05-07T10:32:35.688Z,101420.97
2018-05-07T10:35:03.306Z,101413.56
2018-05-07T10:37:30.927Z,101414.80
2018-05-07T10:39:58.557Z,101416.11
2018-05-07T10:42:26.171Z,101410.47
2018-05-07T10:44:53.806Z,101415.31
2018-05-07T10:47:21.395Z,101408.75
2018-05-07T10:49:49.063Z,101399.59
2018-05-07T10:52:16.736Z,101399.16
2018-05-07T10:54:44.300Z,101398.97
2018-05-07T10:57:11.926Z,101393.72
2018-05-07T10:59:39.682Z,101384.80
2018-05-07T11:02:07.281Z,101387.97
2018-05-07T11:04:34.937Z,101374.14
2018-05-07T11:07:02.536Z,101377.05
2018-05-07T11:09:30.126Z,101374.75
2018-05-07T11:11:57.865Z,101379.22
2018-05-07T11:14:25.517Z,101373.70
2018-05-07T11:16:53.140Z,101368.17
2018-05-07T11:19:20.750Z,101361.28
2018-05-07T11:21:48.412Z,101362.27
2018-05-07T11:24:16.026Z,101361.54
2018-05-07T11:26:43.665Z,101363.02
2018-05-07T11:29:11.276Z,101357.58
2018-05-07T11:31:38.921Z,101357.46
2018-05-07T11:34:06.525Z,101362.28
2018-05-07T11:36:34.182Z,101356.17
2018-05-07T11:39:01.800Z,101348.69
2018-05-07T11:41:29.474Z,101341.38
2018-05-07T11:43:57.060Z,101350.41
2018-05-07T11:46:24.702Z,101345.91
2018-05-07T11:48:52.341Z,101340.27
2018-05-07T11:51:19.943Z,101337.28
2018-05-07T11:53:47.577Z,101345.16
2018-05-07T11:56:15.170Z,101339.38
2018-05-07T11:58:42.873Z,101345.70
2018-05-07T12:01:10.569Z,101344.58
2018-05-07T12:03:38.249Z,101337.31
2018-05-07T12:06:05.853Z,101333.05
2018-05-07T12:08:33.486Z,101324.81
2018-05-07T12:11:01.149Z,101312.43
2018-05-07T12:13:28.840Z,101313.77
2018-05-07T12:15:56.553Z,101317.27
2018-05-07T12:18:24.109Z,101317.64
2018-05-07T12:20:51.717Z,101307.70
2018-05-07T12:23:19.477Z,101316.00
2018-05-07T12:25:47.088Z,101312.55
2018-05-07T12:28:14.739Z,101309.41
2018-05-07T12:30:42.342Z,101310.09
2018-05-07T12:33:09.941Z,101302.33
2018-05-07T12:35:37.741Z,101289.42
2018-05-07T12:38:05.350Z,101290.60
2018-05-07T12:40:32.980Z,101289.89
2018-05-07T12:43:00.574Z,101282.65
2018-05-07T12:45:28.209Z,101281.81
2018-05-07T12:47:55.821Z,101278.13
2018-05-07T12:50:23.514Z,101273.14
2018-05-07T12:52:51.108Z,101273.96
2018-05-07T12:55:18.740Z,101272.57
2018-05-07T12:57:46.336Z,101263.02
2018-05-07T13:00:14.019Z,101257.54
2018-05-07T13:02:41.680Z,101255.38
2018-05-07T13:05:09.341Z,101253.84
2018-05-07T13:07:36.941Z,101241.92
2018-05-07T13:10:04.590Z,101249.71
2018-05-07T13:12:32.200Z,101243.28
2018-05-07T13:14:59.933Z,101236.96
2018-05-07T13:17:27.527Z,101236.40
2018-05-07T13:19:55.110Z,101226.92
2018-05-07T13:22:22.756Z,101227.25
2018-05-07T13:24:50.457Z,101223.61
2018-05-07T13:27:18.044Z,101223.16
2018-05-07T13:29:45.646Z,101216.86
2018-05-07T13:32:13.272Z,101221.74
2018-05-07T13:34:40.903Z,101213.66
2018-05-07T13:37:08.537Z,101217.17
2018-05-07T13:39:36.153Z,101209.88
2018-05-07T13:42:03.865Z,101213.19
2018-05-07T13:44:31.449Z,101204.28
2018-05-07T13:46:59.075Z,101199.09
2018-05-07T13:49:26.677Z,101199.83
2018-05-07T13:51:54.357Z,101199.82
2018-05-07T13:54:21.961Z,101191.71
2018-05-07T13:56:49.648Z,101188.38
2018-05-07T13:59:17.212Z,101188.09
2018-05-07T14:01:44.848Z,101183.61
2018-05-07T14:04:12.531Z,101176.25
2018-05-07T14:06:40.184Z,101174.56
2018-05-07T14:09:07.830Z,101166.38
2018-05-07T14:11:35.446Z,101156.09
2018-05-07T14:14:03.201Z,101152.24
2018-05-07T14:16:30.798Z,101154.08
2018-05-07T14:18:58.540Z,101147.28
2018-05-07T14:21:26.145Z,101140.72
2018-05-07T14:23:53.808Z,101136.42
2018-05-07T14:26:21.521Z,101140.59
2018-05-07T14:28:49.184Z,101136.72
2018-05-07T14:31:16.802Z,101138.48
2018-05-07T14:33:44.457Z,101135.78
2018-05-07T14:36:12.061Z,101128.04
2018-05-07T14:38:39.740Z,101126.86
2018-05-07T14:41:07.349Z,101127.91
2018-05-07T14:43:34.957Z,101120.36
2018-05-07T14:46:02.638Z,101117.66
2018-05-07T14:48:30.253Z,101122.93
2018-05-07T14:50:57.952Z,101122.73
2018-05-07T14:53:25.544Z,101118.03
2018-05-07T14:55:53.255Z,101111.20
2018-05-07T14:58:20.770Z,101106.46
2018-05-07T15:00:48.426Z,101102.02
2018-05-07T15:03:16.035Z,101102.00
2018-05-07T15:05:43.741Z,101096.71
2018-05-07T15:08:11.352Z,101104.09
2018-05-07T15:10:38.980Z,101093.38
2018-05-07T15:13:06.633Z,101094.08
2018-05-07T15:15:34.296Z,101090.28
2018-05-07T15:18:01.920Z,101088.05
2018-05-07T15:20:29.533Z,101092.16
2018-05-07T15:22:57.166Z,101087.79
2018-05-07T15:25:24.766Z,101085.58
2018-05-07T15:27:52.399Z,101075.91
2018-05-07T15:30:19.992Z,101076.33
2018-05-07T15:32:47.672Z,101075.65
2018-05-07T15:35:15.262Z,101076.23
2018-05-07T15:37:42.896Z,101074.28
2018-05-07T15:40:10.532Z,101066.67
2018-05-07T15:42:38.169Z,101065.06
2018-05-07T15:45:05.856Z,101062.61
2018-05-07T15:47:33.555Z,101062.70
2018-05-07T15:50:01.171Z,101060.66
2018-05-07T15:52:28.806Z,101060.03
2018-05-07T15:54:56.414Z,101053.05
2018-05-07T15:57:24.038Z,101055.69
2018-05-07T15:59:51.629Z,101050.75
2018-05-07T16:02:19.300Z,101051.43
2018-05-07T16:04:46.920Z,101047.50
2018-05-07T16:07:14.576Z,101040.95
2018-05-07T16:09:42.230Z,101034.19
2018-05-07T16:12:09.833Z,101039.45
2018-05-07T16:14:37.460Z,101044.05
2018-05-07T16:17:05.119Z,101042.64
2018-05-07T16:19:32.777Z,101048.25
2018-05-07T16:22:00.531Z,101040.67
2018-05-07T16:24:28.108Z,101036.45
2018-05-07T16:26:55.791Z,101035.41
2018-05-07T16:29:23.433Z,101033.89
2018-05-07T16:31:51.068Z,101029.52
2018-05-07T16:34:18.705Z,101025.11
2018-05-07T16:36:46.309Z,101027.13
2018-05-07T16:39:13.943Z,101020.81
2018-05-07T16:41:41.627Z,101024.80
2018-05-07T16:44:09.380Z,101012.28
2018-05-07T16:46:37.021Z,101017.89
2018-05-07T16:49:04.892Z,101012.91
2018-05-07T16:51:32.488Z,101010.27
2018-05-07T16:54:00.090Z,101006.56
2018-05-07T16:56:27.819Z,101003.63
2018-05-07T16:58:55.478Z,101004.48
2018-05-07T17:01:23.129Z,101003.38
2018-05-07T17:03:50.734Z,100998.58
2018-05-07T17:06:18.360Z,101001.71
2018-05-07T17:08:45.959Z,101001.31
2018-05-07T17:11:13.653Z,100999.75
2018-05-07T17:13:41.319Z,100998.98
2018-05-07T17:16:08.985Z,101000.34
2018-05-07T17:18:36.598Z,100997.91
2018-05-07T17:21:04.235Z,100992.23
2018-05-07T17:23:31.837Z,100986.37
2018-05-07T17:25:59.625Z,100986.59
2018-05-07T17:28:27.224Z,100981.20
2018-05-07T17:30:54.817Z,100979.23
2018-05-07T17:33:22.538Z,100982.97
2018-05-07T17:35:50.199Z,100985.16
2018-05-07T17:38:17.950Z,100980.99
2018-05-07T17:40:45.561Z,100984.43
2018-05-07T17:43:13.203Z,100978.34
2018-05-07T17:46:04.316Z,100981.15
2018-05-07T17:48:43.613Z,100981.47
2018-05-07T17:51:11.363Z,100987.05
2018-05-07T17:53:39.025Z,100984.20
2018-05-07T17:56:06.641Z,100982.44
2018-05-07T17:58:34.272Z,100987.54
2018-05-07T18:01:01.889Z,100989.59
2018-05-07T18:03:29.628Z,100986.24
2018-05-07T18:05:57.230Z,100984.41
2018-05-07T18:08:24.874Z,100986.89
2018-05-07T18:10:52.532Z,100994.05
2018-05-07T18:13:20.219Z,100993.27
2018-05-07T18:15:47.966Z,100985.89
2018-05-07T18:18:15.618Z,100987.89
2018-05-07T18:20:43.227Z,100990.45
2018-05-07T18:23:11.098Z,100990.52
2018-05-07T18:25:38.492Z,100991.47
2018-05-07T18:28:06.141Z,100984.43
2018-05-07T18:30:33.741Z,100990.01
2018-05-07T18:33:01.342Z,100989.27
2018-05-07T18:35:28.984Z,100984.06
2018-05-07T18:37:56.637Z,100989.51
2018-05-07T18:40:24.319Z,100989.28
2018-05-07T18:42:51.908Z,100991.23
2018-05-07T18:45:19.583Z,100994.23
2018-05-07T18:47:47.228Z,100995.25
2018-05-07T18:50:14.869Z,100995.31
2018-05-07T18:52:42.506Z,100998.08
2018-05-07T18:55:10.204Z,100999.77
2018-05-07T18:57:37.793Z,100995.20
2018-05-07T19:00:05.458Z,100994.70
2018-05-07T19:02:33.189Z,100997.88
2018-05-07T19:05:00.861Z,100998.88
2018-05-07T19:07:28.477Z,101003.47
2018-05-07T19:09:56.153Z,101008.46
2018-05-07T19:12:23.816Z,101007.59
2018-05-07T19:14:51.456Z,101006.64
2018-05-07T19:17:19.061Z,101011.16
2018-05-07T19:19:46.665Z,101016.30
2018-05-07T19:22:14.354Z,101020.66
2018-05-07T19:24:41.978Z,101016.96
2018-05-07T19:27:09.662Z,101015.92
2018-05-07T19:29:37.387Z,101019.00
2018-05-07T19:32:05.006Z,101020.66
2018-05-07T19:34:32.625Z,101024.51
2018-05-07T19:37:00.279Z,101023.86
2018-05-07T19:39:27.886Z,101023.78
2018-05-07T19:41:55.620Z,101023.50
2018-05-07T19:44:23.262Z,101029.41
2018-05-07T19:46:50.914Z,101027.59
2018-05-07T19:49:18.523Z,101026.22
2018-05-07T19:51:46.190Z,101027.53
2018-05-07T19:54:13.804Z,101025.30
2018-05-07T19:56:41.455Z,101031.85
2018-05-07T19:59:09.081Z,101034.77
2018-05-07T20:01:36.734Z,101039.03
2018-05-07T20:04:04.345Z,101037.05
2018-05-07T20:06:31.949Z,101036.78
2018-05-07T20:08:59.637Z,101038.17
2018-05-07T20:11:27.258Z,101041.80
2018-05-07T20:13:54.984Z,101036.36
2018-05-07T20:16:22.620Z,101041.47
2018-05-07T20:18:50.265Z,101041.86
2018-05-07T20:21:17.867Z,101042.63
2018-05-07T20:23:45.589Z,101042.25
2018-05-07T20:26:13.196Z,101048.02
2018-05-07T20:28:40.835Z,101048.98
2018-05-07T20:31:08.426Z,101047.23
2018-05-07T20:33:36.097Z,101048.09
2018-05-07T20:36:03.823Z,101045.94
2018-05-07T20:38:31.468Z,101043.75
2018-05-07T20:40:59.103Z,101041.27
2018-05-07T20:43:26.829Z,101041.72
2018-05-07T20:45:54.489Z,101040.95
2018-05-07T20:48:22.214Z,101044.25
2018-05-07T20:50:49.773Z,101036.89
2018-05-07T20:53:17.383Z,101038.75
2018-05-07T20:55:45.035Z,101046.31
2018-05-07T20:58:12.628Z,101046.77
2018-05-07T21:00:40.266Z,101050.77
2018-05-07T21:03:07.853Z,101048.62
2018-05-07T21:05:35.497Z,101038.45
2018-05-07T21:08:03.159Z,101046.84
2018-05-07T21:10:30.785Z,101043.28
2018-05-07T21:12:58.405Z,101048.08
2018-05-07T21:15:26.066Z,101049.78
2018-05-07T21:17:53.669Z,101051.10
2018-05-07T21:20:21.298Z,101044.54
2018-05-07T21:22:48.900Z,101050.28
2018-05-07T21:25:16.532Z,101049.84
2018-05-07T21:27:44.134Z,101050.69
2018-05-07T21:30:11.778Z,101044.03
2018-05-07T21:32:39.382Z,101043.66
2018-05-07T21:35:07.006Z,101052.47
2018-05-07T21:37:34.630Z,101047.63
2018-05-07T21:40:02.261Z,101050.34
2018-05-07T21:42:29.955Z,101059.16
2018-05-07T21:44:57.585Z,101060.55
2018-05-07T21:47:25.177Z,101058.39
2018-05-07T21:49:52.862Z,101055.76
2018-05-07T21:52:20.524Z,101049.15
2018-05-07T21:54:48.165Z,101045.64
2018-05-07T21:57:15.788Z,101049.63
2018-05-07T21:59:43.393Z,101048.30
2018-05-07T22:02:11.115Z,101048.73
2018-05-07T22:04:38.665Z,101043.46
2018-05-07T22:07:06.304Z,101043.45
2018-05-07T22:09:33.930Z,101050.91
2018-05-07T22:12:01.557Z,101047.86
2018-05-07T22:14:29.204Z,101050.04
2018-05-07T22:16:56.820Z,101046.52
2018-05-07T22:19:24.416Z,101050.05
2018-05-07T22:21:52.064Z,101042.98
2018-05-07T22:24:19.669Z,101050.04
2018-05-07T22:26:47.306Z,101048.70
2018-05-07T22:29:14.946Z,101051.37
2018-05-07T22:31:42.561Z,101051.34
2018-05-07T22:34:10.170Z,101049.17
2018-05-07T22:36:37.813Z,101047.83
2018-05-07T22:39:17.049Z,101055.77
2018-05-07T22:41:44.656Z,101048.73
2018-05-07T22:44:12.270Z,101052.23
2018-05-07T22:46:39.904Z,101052.24
2018-05-07T22:49:07.632Z,101052.70
2018-05-07T22:51:35.253Z,101049.16
2018-05-07T22:54:02.874Z,101041.69
2018-05-07T22:56:30.481Z,101053.14
2018-05-07T22:58:58.123Z,101050.06
2018-05-07T23:01:25.731Z,101052.69
2018-05-07T23:03:53.373Z,101047.41
2018-05-07T23:06:20.966Z,101042.58
2018-05-07T23:08:48.563Z,101038.59
2018-05-07T23:11:16.195Z,101039.92
2018-05-07T23:13:43.778Z,101043.89
2018-05-07T23:16:11.477Z,101036.80
2018-05-07T23:18:39.093Z,101030.63
2018-05-07T23:21:06.728Z,101032.34
2018-05-07T23:23:34.323Z,101032.77
2018-05-07T23:26:01.981Z,101041.53
2018-05-07T23:28:29.590Z,101034.91
2018-05-07T23:30:57.221Z,101037.09
2018-05-07T23:33:24.809Z,101032.30
2018-05-07T23:35:52.440Z,101040.22
2018-05-07T23:38:20.048Z,101034.97
2018-05-07T23:40:48.000Z,101033.19
2018-05-07T23:43:15.597Z,101031.34
2018-05-07T23:45:43.209Z,101024.70
2018-05-07T23:48:10.845Z,101024.25
2018-05-07T23:50:38.456Z,101022.49
2018-05-07T23:53:06.085Z,101025.56
2018-05-07T23:55:33.741Z,101025.54
2018-05-07T23:58:01.443Z,101021.61
